Fiskeville, RI (02823)

9:08 AM EST on January 27, 2015 (GMT -0500)
APRSWXNET Warwick RI US | Change Station
CLOSE
Current Station
Personal Weather Station
Location: West Warwick, RI
Elevation: 177 ft
Nearby Weather Stations
Active Advisory: Blizzard Warning Active Notice: Public Information Statement

Elev 177 ft 41.70 °N, 71.50 °W | Updated 38 minutes ago

Snow
Snow
17 °F
Feels Like 17 °F
N
3
Wind Variable Wind from North
Gusts 12.0 mph

Today
High -- | Low -- °F
--% Chance of Precip.
Yesterday
High -- | Low -- °F
Precip. -- in
7:03 AM 4:55 PM
First Quarter, 54% visible
Pressure 29.48 in
Visibility 0.8 miles
Clouds
Windchill 17 °F
Dew Point 15 °F
Humidity 91%
Rainfall 0.60 in
Snow Depth Not available.
UV Not available.
Pollen .10 out of 12
Air Quality Not available.
Flu Activity Not available.
METAR KPVD 271351Z COR 01023G37KT 3/4SM R05/2000V3000FT -SN BLSN BR VV008 M09/M11 A2948 RMK AO2 PK WND 36040/1259 SLP983 P0010 T10891111 $

More Conditions Fewer Conditions

Pressure 29.48 in
Visibility 0.8 miles
Clouds
Windchill 17 °F
Dew Point 15 °F
Humidity 91%
Rainfall 0.60 in
Snow Depth Not available.
UV Not available.
Pollen .10 out of 12
Air Quality Not available.
Flu Activity Not available.
METAR KPVD 271351Z COR 01023G37KT 3/4SM R05/2000V3000FT -SN BLSN BR VV008 M09/M11 A2948 RMK AO2 PK WND 36040/1259 SLP983 P0010 T10891111 $

More Conditions Fewer Conditions

10-Day Weather Forecast

Almanac

Astronomy

Jan. 27, 2015 Rise Set
Actual Time
Civil Twilight
Nautical Twilight
Astronomical Twilight
Moon
Length of Visible Light
Length of Day
Tomorrow will be .
, % of the Moon is Illuminated

Today's Extremes

State Highs State Lows

Community

WunderPhotos

Upload Photos

1,790,637 photos uploaded!

WunderBlogs® & News

Nearby

Air Quality

  Air Quality AQ Index Pollutant
Not available.

Snow Depth

Station Depth Elevation

Earthquake Activity

City Distance Mag. Time & Date
Minimum magnitude displayed is 2.5.

Coastal Water Temperatures

Place Temperature

Nearby Weather Stations